sensor_id;sensor_type;location;lat;lon;timestamp;P1;durP1;ratioP1;P2;durP2;ratioP2
37851;SDS011;23691;52.486;4.650;2023-06-26T00:01:40;10.05;;;4.10;;
37851;SDS011;23691;52.486;4.650;2023-06-26T00:04:13;10.02;;;4.43;;
37851;SDS011;23691;52.486;4.650;2023-06-26T00:06:39;13.00;;;4.40;;
37851;SDS011;23691;52.486;4.650;2023-06-26T00:09:07;12.65;;;4.40;;
37851;SDS011;23691;52.486;4.650;2023-06-26T00:11:33;9.83;;;4.03;;
37851;SDS011;23691;52.486;4.650;2023-06-26T00:14:01;9.98;;;4.18;;
37851;SDS011;23691;52.486;4.650;2023-06-26T00:16:27;10.40;;;4.07;;
37851;SDS011;23691;52.486;4.650;2023-06-26T00:18:53;11.35;;;4.22;;
37851;SDS011;23691;52.486;4.650;2023-06-26T00:21:19;12.10;;;4.93;;
37851;SDS011;23691;52.486;4.650;2023-06-26T00:23:45;11.57;;;5.30;;
37851;SDS011;23691;52.486;4.650;2023-06-26T00:26:11;11.73;;;4.90;;
37851;SDS011;23691;52.486;4.650;2023-06-26T00:28:40;10.80;;;4.78;;
37851;SDS011;23691;52.486;4.650;2023-06-26T00:31:06;11.47;;;5.50;;
37851;SDS011;23691;52.486;4.650;2023-06-26T00:33:32;12.82;;;4.60;;
37851;SDS011;23691;52.486;4.650;2023-06-26T00:35:59;12.00;;;5.13;;
37851;SDS011;23691;52.486;4.650;2023-06-26T00:38:24;12.03;;;4.73;;
37851;SDS011;23691;52.486;4.650;2023-06-26T00:40:50;13.98;;;4.80;;
37851;SDS011;23691;52.486;4.650;2023-06-26T00:43:16;10.83;;;4.90;;
37851;SDS011;23691;52.486;4.650;2023-06-26T00:45:46;14.93;;;4.93;;
37851;SDS011;23691;52.486;4.650;2023-06-26T00:48:13;13.55;;;4.78;;
37851;SDS011;23691;52.486;4.650;2023-06-26T00:50:40;13.80;;;4.88;;
37851;SDS011;23691;52.486;4.650;2023-06-26T00:55:34;12.40;;;4.73;;
37851;SDS011;23691;52.486;4.650;2023-06-26T00:58:01;12.13;;;4.27;;
37851;SDS011;23691;52.486;4.650;2023-06-26T01:00:26;13.77;;;5.27;;
37851;SDS011;23691;52.486;4.650;2023-06-26T01:02:52;12.38;;;4.32;;
37851;SDS011;23691;52.486;4.650;2023-06-26T01:05:18;15.32;;;4.70;;
37851;SDS011;23691;52.486;4.650;2023-06-26T01:07:49;13.18;;;4.55;;
37851;SDS011;23691;52.486;4.650;2023-06-26T01:10:15;15.25;;;4.40;;
37851;SDS011;23691;52.486;4.650;2023-06-26T01:12:43;14.70;;;4.88;;
37851;SDS011;23691;52.486;4.650;2023-06-26T01:15:10;16.92;;;5.03;;
37851;SDS011;23691;52.486;4.650;2023-06-26T01:17:36;13.85;;;4.28;;
37851;SDS011;23691;52.486;4.650;2023-06-26T01:20:04;13.65;;;4.70;;
37851;SDS011;23691;52.486;4.650;2023-06-26T01:28:09;17.77;;;5.28;;
37851;SDS011;23691;52.486;4.650;2023-06-26T01:30:38;15.93;;;5.10;;
37851;SDS011;23691;52.486;4.650;2023-06-26T01:33:07;18.88;;;5.53;;
37851;SDS011;23691;52.486;4.650;2023-06-26T01:35:35;18.07;;;4.97;;
37851;SDS011;23691;52.486;4.650;2023-06-26T01:38:11;21.48;;;5.65;;
37851;SDS011;23691;52.486;4.650;2023-06-26T01:40:51;21.42;;;5.93;;
37851;SDS011;23691;52.486;4.650;2023-06-26T01:43:24;21.08;;;5.28;;
37851;SDS011;23691;52.486;4.650;2023-06-26T01:46:15;19.45;;;5.03;;
37851;SDS011;23691;52.486;4.650;2023-06-26T01:48:48;17.92;;;5.35;;
37851;SDS011;23691;52.486;4.650;2023-06-26T01:51:20;19.83;;;5.97;;
37851;SDS011;23691;52.486;4.650;2023-06-26T01:53:55;19.25;;;5.95;;
37851;SDS011;23691;52.486;4.650;2023-06-26T01:56:23;21.48;;;6.47;;
37851;SDS011;23691;52.486;4.650;2023-06-26T01:58:51;21.80;;;6.18;;
37851;SDS011;23691;52.486;4.650;2023-06-26T02:01:21;19.25;;;5.82;;
37851;SDS011;23691;52.486;4.650;2023-06-26T02:03:48;20.42;;;5.85;;
37851;SDS011;23691;52.486;4.650;2023-06-26T02:06:14;20.38;;;6.13;;
37851;SDS011;23691;52.486;4.650;2023-06-26T02:08:40;15.00;;;4.70;;
37851;SDS011;23691;52.486;4.650;2023-06-26T02:11:07;17.92;;;5.13;;
37851;SDS011;23691;52.486;4.650;2023-06-26T02:13:32;24.42;;;5.38;;
37851;SDS011;23691;52.486;4.650;2023-06-26T02:15:58;20.00;;;5.93;;
37851;SDS011;23691;52.486;4.650;2023-06-26T02:18:24;21.43;;;5.20;;
37851;SDS011;23691;52.486;4.650;2023-06-26T02:20:55;18.35;;;5.55;;
37851;SDS011;23691;52.486;4.650;2023-06-26T02:23:21;18.65;;;4.70;;
37851;SDS011;23691;52.486;4.650;2023-06-26T02:25:49;18.38;;;4.97;;
37851;SDS011;23691;52.486;4.650;2023-06-26T02:28:14;15.32;;;4.85;;
37851;SDS011;23691;52.486;4.650;2023-06-26T02:30:40;15.55;;;4.78;;
37851;SDS011;23691;52.486;4.650;2023-06-26T02:33:05;19.13;;;4.80;;
37851;SDS011;23691;52.486;4.650;2023-06-26T02:35:32;19.60;;;5.20;;
37851;SDS011;23691;52.486;4.650;2023-06-26T02:37:58;22.75;;;5.18;;
37851;SDS011;23691;52.486;4.650;2023-06-26T02:40:26;15.10;;;4.33;;
37851;SDS011;23691;52.486;4.650;2023-06-26T02:42:51;17.13;;;4.50;;
37851;SDS011;23691;52.486;4.650;2023-06-26T02:45:17;16.42;;;4.15;;
37851;SDS011;23691;52.486;4.650;2023-06-26T02:47:43;15.02;;;4.18;;
37851;SDS011;23691;52.486;4.650;2023-06-26T02:50:08;14.93;;;4.07;;
37851;SDS011;23691;52.486;4.650;2023-06-26T02:52:34;15.00;;;4.30;;
37851;SDS011;23691;52.486;4.650;2023-06-26T02:55:00;15.63;;;4.25;;
37851;SDS011;23691;52.486;4.650;2023-06-26T02:57:28;13.33;;;4.10;;
37851;SDS011;23691;52.486;4.650;2023-06-26T02:59:54;14.90;;;4.25;;
37851;SDS011;23691;52.486;4.650;2023-06-26T03:02:19;11.82;;;3.88;;
37851;SDS011;23691;52.486;4.650;2023-06-26T03:04:45;11.48;;;3.53;;
37851;SDS011;23691;52.486;4.650;2023-06-26T03:07:10;17.33;;;3.70;;
37851;SDS011;23691;52.486;4.650;2023-06-26T03:09:36;10.15;;;3.10;;
37851;SDS011;23691;52.486;4.650;2023-06-26T03:12:01;13.00;;;3.50;;
37851;SDS011;23691;52.486;4.650;2023-06-26T03:14:27;9.87;;;2.80;;
37851;SDS011;23691;52.486;4.650;2023-06-26T03:16:53;12.05;;;3.28;;
37851;SDS011;23691;52.486;4.650;2023-06-26T03:19:26;10.43;;;3.40;;
37851;SDS011;23691;52.486;4.650;2023-06-26T03:21:53;9.45;;;2.67;;
37851;SDS011;23691;52.486;4.650;2023-06-26T03:24:20;10.98;;;2.83;;
37851;SDS011;23691;52.486;4.650;2023-06-26T03:26:46;10.07;;;3.10;;
37851;SDS011;23691;52.486;4.650;2023-06-26T03:29:12;9.25;;;2.80;;
37851;SDS011;23691;52.486;4.650;2023-06-26T03:31:40;8.98;;;3.05;;
37851;SDS011;23691;52.486;4.650;2023-06-26T03:34:06;9.60;;;2.80;;
37851;SDS011;23691;52.486;4.650;2023-06-26T03:36:40;10.57;;;2.95;;
37851;SDS011;23691;52.486;4.650;2023-06-26T03:41:37;13.70;;;3.15;;
37851;SDS011;23691;52.486;4.650;2023-06-26T03:44:02;12.33;;;3.60;;
37851;SDS011;23691;52.486;4.650;2023-06-26T03:46:29;12.05;;;3.35;;
37851;SDS011;23691;52.486;4.650;2023-06-26T03:49:00;11.00;;;3.15;;
37851;SDS011;23691;52.486;4.650;2023-06-26T03:51:27;14.43;;;3.10;;
37851;SDS011;23691;52.486;4.650;2023-06-26T03:53:53;10.63;;;3.20;;
37851;SDS011;23691;52.486;4.650;2023-06-26T03:56:18;12.33;;;3.00;;
37851;SDS011;23691;52.486;4.650;2023-06-26T03:58:44;12.10;;;2.90;;
37851;SDS011;23691;52.486;4.650;2023-06-26T04:01:10;13.60;;;3.07;;
37851;SDS011;23691;52.486;4.650;2023-06-26T04:03:35;13.45;;;3.10;;
37851;SDS011;23691;52.486;4.650;2023-06-26T04:06:03;12.77;;;3.75;;
37851;SDS011;23691;52.486;4.650;2023-06-26T04:10:54;12.00;;;2.80;;
37851;SDS011;23691;52.486;4.650;2023-06-26T04:13:22;10.05;;;2.80;;
37851;SDS011;23691;52.486;4.650;2023-06-26T04:15:48;13.20;;;3.33;;
37851;SDS011;23691;52.486;4.650;2023-06-26T04:18:13;12.30;;;3.35;;
37851;SDS011;23691;52.486;4.650;2023-06-26T04:20:41;9.93;;;2.60;;
37851;SDS011;23691;52.486;4.650;2023-06-26T04:23:36;10.73;;;3.10;;
37851;SDS011;23691;52.486;4.650;2023-06-26T04:26:03;12.57;;;2.70;;
37851;SDS011;23691;52.486;4.650;2023-06-26T04:28:32;10.68;;;2.85;;
37851;SDS011;23691;52.486;4.650;2023-06-26T04:30:58;10.65;;;2.72;;
37851;SDS011;23691;52.486;4.650;2023-06-26T04:33:25;12.55;;;3.00;;
37851;SDS011;23691;52.486;4.650;2023-06-26T04:35:51;7.70;;;2.28;;
37851;SDS011;23691;52.486;4.650;2023-06-26T04:38:37;9.25;;;2.50;;
37851;SDS011;23691;52.486;4.650;2023-06-26T04:41:03;10.18;;;2.45;;
37851;SDS011;23691;52.486;4.650;2023-06-26T04:43:29;8.75;;;2.60;;
37851;SDS011;23691;52.486;4.650;2023-06-26T04:45:57;8.75;;;2.30;;
37851;SDS011;23691;52.486;4.650;2023-06-26T04:48:27;9.35;;;2.70;;
37851;SDS011;23691;52.486;4.650;2023-06-26T04:50:53;9.53;;;2.37;;
37851;SDS011;23691;52.486;4.650;2023-06-26T04:53:20;10.90;;;2.70;;
37851;SDS011;23691;52.486;4.650;2023-06-26T04:55:49;9.82;;;2.78;;
37851;SDS011;23691;52.486;4.650;2023-06-26T04:58:17;10.60;;;3.08;;
37851;SDS011;23691;52.486;4.650;2023-06-26T05:00:46;13.43;;;2.95;;
37851;SDS011;23691;52.486;4.650;2023-06-26T05:03:16;12.20;;;2.95;;
37851;SDS011;23691;52.486;4.650;2023-06-26T05:05:43;10.02;;;2.85;;
37851;SDS011;23691;52.486;4.650;2023-06-26T05:13:14;14.38;;;2.72;;
37851;SDS011;23691;52.486;4.650;2023-06-26T05:15:43;13.88;;;2.95;;
37851;SDS011;23691;52.486;4.650;2023-06-26T05:18:09;10.00;;;2.80;;
37851;SDS011;23691;52.486;4.650;2023-06-26T05:20:35;10.93;;;2.83;;
37851;SDS011;23691;52.486;4.650;2023-06-26T05:23:02;10.25;;;2.70;;
37851;SDS011;23691;52.486;4.650;2023-06-26T05:25:29;11.77;;;2.63;;
37851;SDS011;23691;52.486;4.650;2023-06-26T05:27:55;8.73;;;2.50;;
37851;SDS011;23691;52.486;4.650;2023-06-26T05:30:22;10.15;;;2.53;;
37851;SDS011;23691;52.486;4.650;2023-06-26T05:32:51;9.63;;;2.95;;
37851;SDS011;23691;52.486;4.650;2023-06-26T05:35:23;10.80;;;2.85;;
37851;SDS011;23691;52.486;4.650;2023-06-26T05:37:53;10.52;;;2.80;;
37851;SDS011;23691;52.486;4.650;2023-06-26T05:40:24;10.60;;;2.80;;
37851;SDS011;23691;52.486;4.650;2023-06-26T05:42:50;10.55;;;2.53;;
37851;SDS011;23691;52.486;4.650;2023-06-26T05:45:16;13.23;;;2.88;;
37851;SDS011;23691;52.486;4.650;2023-06-26T05:47:42;11.68;;;2.55;;
37851;SDS011;23691;52.486;4.650;2023-06-26T05:50:11;11.70;;;2.85;;
37851;SDS011;23691;52.486;4.650;2023-06-26T05:52:42;11.73;;;2.15;;
37851;SDS011;23691;52.486;4.650;2023-06-26T05:55:09;11.70;;;2.80;;
37851;SDS011;23691;52.486;4.650;2023-06-26T05:58:32;9.68;;;2.33;;
37851;SDS011;23691;52.486;4.650;2023-06-26T06:01:00;11.40;;;2.42;;
37851;SDS011;23691;52.486;4.650;2023-06-26T06:03:25;10.55;;;2.35;;
37851;SDS011;23691;52.486;4.650;2023-06-26T06:05:51;11.27;;;2.30;;
37851;SDS011;23691;52.486;4.650;2023-06-26T06:08:17;15.70;;;2.45;;
37851;SDS011;23691;52.486;4.650;2023-06-26T06:10:46;13.05;;;2.38;;
37851;SDS011;23691;52.486;4.650;2023-06-26T06:13:15;9.38;;;2.13;;
37851;SDS011;23691;52.486;4.650;2023-06-26T06:15:52;13.30;;;2.75;;
37851;SDS011;23691;52.486;4.650;2023-06-26T06:19:04;8.27;;;2.13;;
37851;SDS011;23691;52.486;4.650;2023-06-26T06:21:46;12.52;;;2.83;;
37851;SDS011;23691;52.486;4.650;2023-06-26T06:24:14;9.82;;;2.40;;
37851;SDS011;23691;52.486;4.650;2023-06-26T06:26:39;12.73;;;2.35;;
37851;SDS011;23691;52.486;4.650;2023-06-26T06:29:05;11.93;;;2.40;;
37851;SDS011;23691;52.486;4.650;2023-06-26T06:31:34;11.38;;;2.42;;
37851;SDS011;23691;52.486;4.650;2023-06-26T06:34:00;9.88;;;1.90;;
37851;SDS011;23691;52.486;4.650;2023-06-26T06:36:25;8.77;;;2.20;;
37851;SDS011;23691;52.486;4.650;2023-06-26T06:38:51;12.83;;;2.30;;
37851;SDS011;23691;52.486;4.650;2023-06-26T06:41:19;12.93;;;2.40;;
37851;SDS011;23691;52.486;4.650;2023-06-26T06:44:04;11.85;;;2.50;;
37851;SDS011;23691;52.486;4.650;2023-06-26T06:46:38;12.60;;;2.20;;
37851;SDS011;23691;52.486;4.650;2023-06-26T06:49:09;10.85;;;2.00;;
37851;SDS011;23691;52.486;4.650;2023-06-26T06:51:35;9.00;;;2.00;;
37851;SDS011;23691;52.486;4.650;2023-06-26T06:54:01;9.57;;;1.63;;
37851;SDS011;23691;52.486;4.650;2023-06-26T06:56:40;11.98;;;2.10;;
37851;SDS011;23691;52.486;4.650;2023-06-26T06:59:35;11.82;;;1.70;;
37851;SDS011;23691;52.486;4.650;2023-06-26T07:05:45;9.95;;;1.83;;
37851;SDS011;23691;52.486;4.650;2023-06-26T07:08:25;12.93;;;2.10;;
37851;SDS011;23691;52.486;4.650;2023-06-26T07:10:56;8.77;;;1.52;;
37851;SDS011;23691;52.486;4.650;2023-06-26T07:13:25;8.95;;;1.42;;
37851;SDS011;23691;52.486;4.650;2023-06-26T07:15:51;11.63;;;1.85;;
37851;SDS011;23691;52.486;4.650;2023-06-26T07:18:18;12.50;;;2.13;;
37851;SDS011;23691;52.486;4.650;2023-06-26T07:20:49;9.75;;;1.75;;
37851;SDS011;23691;52.486;4.650;2023-06-26T07:23:16;14.70;;;2.17;;
37851;SDS011;23691;52.486;4.650;2023-06-26T07:25:48;9.30;;;1.75;;
37851;SDS011;23691;52.486;4.650;2023-06-26T07:30:48;10.13;;;1.73;;
37851;SDS011;23691;52.486;4.650;2023-06-26T07:33:20;13.10;;;2.15;;
37851;SDS011;23691;52.486;4.650;2023-06-26T07:35:51;11.18;;;1.80;;
37851;SDS011;23691;52.486;4.650;2023-06-26T07:42:50;11.07;;;1.97;;
37851;SDS011;23691;52.486;4.650;2023-06-26T07:50:07;10.40;;;1.90;;
37851;SDS011;23691;52.486;4.650;2023-06-26T07:52:54;5.77;;;1.70;;
37851;SDS011;23691;52.486;4.650;2023-06-26T07:55:24;13.35;;;2.13;;
37851;SDS011;23691;52.486;4.650;2023-06-26T07:57:51;14.32;;;2.25;;
37851;SDS011;23691;52.486;4.650;2023-06-26T08:00:33;12.80;;;2.08;;
37851;SDS011;23691;52.486;4.650;2023-06-26T08:03:14;8.77;;;1.70;;
37851;SDS011;23691;52.486;4.650;2023-06-26T08:06:07;12.85;;;2.00;;
37851;SDS011;23691;52.486;4.650;2023-06-26T08:09:30;8.70;;;1.60;;
37851;SDS011;23691;52.486;4.650;2023-06-26T08:12:24;11.77;;;1.87;;
37851;SDS011;23691;52.486;4.650;2023-06-26T08:15:41;9.23;;;1.57;;
37851;SDS011;23691;52.486;4.650;2023-06-26T08:21:57;9.65;;;1.88;;
37851;SDS011;23691;52.486;4.650;2023-06-26T08:24:25;9.77;;;2.05;;
37851;SDS011;23691;52.486;4.650;2023-06-26T08:26:55;9.32;;;1.67;;
37851;SDS011;23691;52.486;4.650;2023-06-26T08:29:24;11.55;;;2.05;;
37851;SDS011;23691;52.486;4.650;2023-06-26T08:31:52;11.23;;;2.17;;
37851;SDS011;23691;52.486;4.650;2023-06-26T08:34:18;9.43;;;1.63;;
37851;SDS011;23691;52.486;4.650;2023-06-26T08:36:46;6.68;;;1.67;;
37851;SDS011;23691;52.486;4.650;2023-06-26T08:39:12;10.10;;;2.00;;
37851;SDS011;23691;52.486;4.650;2023-06-26T08:41:38;10.13;;;1.80;;
37851;SDS011;23691;52.486;4.650;2023-06-26T08:44:13;9.88;;;2.20;;
37851;SDS011;23691;52.486;4.650;2023-06-26T08:54:45;12.98;;;1.88;;
37851;SDS011;23691;52.486;4.650;2023-06-26T09:01:03;9.73;;;1.90;;
37851;SDS011;23691;52.486;4.650;2023-06-26T09:07:31;10.38;;;2.00;;
37851;SDS011;23691;52.486;4.650;2023-06-26T09:15:10;8.18;;;1.92;;
37851;SDS011;23691;52.486;4.650;2023-06-26T09:23:26;8.02;;;1.70;;
37851;SDS011;23691;52.486;4.650;2023-06-26T09:26:07;9.77;;;1.75;;
37851;SDS011;23691;52.486;4.650;2023-06-26T09:32:17;11.25;;;1.70;;
37851;SDS011;23691;52.486;4.650;2023-06-26T09:34:52;10.23;;;1.73;;
37851;SDS011;23691;52.486;4.650;2023-06-26T09:37:31;11.77;;;2.10;;
37851;SDS011;23691;52.486;4.650;2023-06-26T09:40:53;12.38;;;1.52;;
37851;SDS011;23691;52.486;4.650;2023-06-26T09:43:20;10.75;;;1.75;;
37851;SDS011;23691;52.486;4.650;2023-06-26T09:48:16;10.00;;;1.80;;
37851;SDS011;23691;52.486;4.650;2023-06-26T09:50:45;11.52;;;1.88;;
37851;SDS011;23691;52.486;4.650;2023-06-26T09:53:20;12.98;;;1.83;;
37851;SDS011;23691;52.486;4.650;2023-06-26T09:55:58;12.47;;;2.07;;
37851;SDS011;23691;52.486;4.650;2023-06-26T09:58:30;8.02;;;1.75;;
37851;SDS011;23691;52.486;4.650;2023-06-26T10:01:00;12.30;;;1.90;;
37851;SDS011;23691;52.486;4.650;2023-06-26T10:03:42;11.07;;;1.75;;
37851;SDS011;23691;52.486;4.650;2023-06-26T10:06:15;10.33;;;1.83;;
37851;SDS011;23691;52.486;4.650;2023-06-26T10:09:04;7.83;;;1.70;;
37851;SDS011;23691;52.486;4.650;2023-06-26T10:14:21;14.07;;;1.80;;
37851;SDS011;23691;52.486;4.650;2023-06-26T10:16:56;11.50;;;1.92;;
37851;SDS011;23691;52.486;4.650;2023-06-26T10:19:24;13.52;;;1.63;;
37851;SDS011;23691;52.486;4.650;2023-06-26T10:21:52;14.68;;;1.65;;
37851;SDS011;23691;52.486;4.650;2023-06-26T10:24:20;12.70;;;1.87;;
37851;SDS011;23691;52.486;4.650;2023-06-26T10:26:49;9.07;;;1.53;;
37851;SDS011;23691;52.486;4.650;2023-06-26T10:29:18;8.75;;;1.40;;
37851;SDS011;23691;52.486;4.650;2023-06-26T10:31:51;14.05;;;1.80;;
37851;SDS011;23691;52.486;4.650;2023-06-26T10:34:26;11.88;;;1.77;;
37851;SDS011;23691;52.486;4.650;2023-06-26T10:37:01;11.98;;;2.00;;
37851;SDS011;23691;52.486;4.650;2023-06-26T10:39:32;12.88;;;1.80;;
37851;SDS011;23691;52.486;4.650;2023-06-26T10:42:16;10.25;;;1.80;;
37851;SDS011;23691;52.486;4.650;2023-06-26T10:44:46;10.65;;;1.52;;
37851;SDS011;23691;52.486;4.650;2023-06-26T10:50:16;11.50;;;1.80;;
37851;SDS011;23691;52.486;4.650;2023-06-26T10:53:06;9.85;;;1.58;;
37851;SDS011;23691;52.486;4.650;2023-06-26T10:55:35;12.07;;;1.80;;
37851;SDS011;23691;52.486;4.650;2023-06-26T10:58:04;9.30;;;1.77;;
37851;SDS011;23691;52.486;4.650;2023-06-26T11:00:29;11.07;;;1.73;;
37851;SDS011;23691;52.486;4.650;2023-06-26T11:03:01;10.75;;;1.58;;
37851;SDS011;23691;52.486;4.650;2023-06-26T11:06:08;8.43;;;1.50;;
37851;SDS011;23691;52.486;4.650;2023-06-26T11:08:45;15.83;;;1.77;;
37851;SDS011;23691;52.486;4.650;2023-06-26T11:11:13;7.72;;;1.58;;
37851;SDS011;23691;52.486;4.650;2023-06-26T11:13:41;9.13;;;1.50;;
37851;SDS011;23691;52.486;4.650;2023-06-26T11:16:11;9.32;;;1.55;;
37851;SDS011;23691;52.486;4.650;2023-06-26T11:18:38;10.07;;;1.23;;
37851;SDS011;23691;52.486;4.650;2023-06-26T11:21:07;9.45;;;1.52;;
37851;SDS011;23691;52.486;4.650;2023-06-26T11:23:35;12.25;;;1.95;;
37851;SDS011;23691;52.486;4.650;2023-06-26T11:26:17;12.93;;;1.67;;
37851;SDS011;23691;52.486;4.650;2023-06-26T11:28:51;9.32;;;1.70;;
37851;SDS011;23691;52.486;4.650;2023-06-26T11:31:24;9.53;;;1.37;;
37851;SDS011;23691;52.486;4.650;2023-06-26T11:33:51;9.40;;;1.60;;
37851;SDS011;23691;52.486;4.650;2023-06-26T11:36:18;8.25;;;1.67;;
37851;SDS011;23691;52.486;4.650;2023-06-26T11:38:43;10.68;;;1.60;;
37851;SDS011;23691;52.486;4.650;2023-06-26T11:41:08;7.35;;;1.25;;
37851;SDS011;23691;52.486;4.650;2023-06-26T11:43:34;9.47;;;1.50;;
37851;SDS011;23691;52.486;4.650;2023-06-26T11:46:01;7.53;;;1.30;;
37851;SDS011;23691;52.486;4.650;2023-06-26T11:48:26;11.32;;;1.30;;
37851;SDS011;23691;52.486;4.650;2023-06-26T11:50:55;6.57;;;1.50;;
37851;SDS011;23691;52.486;4.650;2023-06-26T11:53:21;8.38;;;1.55;;
37851;SDS011;23691;52.486;4.650;2023-06-26T11:55:46;8.27;;;1.30;;
37851;SDS011;23691;52.486;4.650;2023-06-26T11:58:11;9.48;;;1.48;;
37851;SDS011;23691;52.486;4.650;2023-06-26T12:00:43;6.95;;;1.30;;
37851;SDS011;23691;52.486;4.650;2023-06-26T12:03:09;7.22;;;1.30;;
37851;SDS011;23691;52.486;4.650;2023-06-26T12:05:35;7.82;;;1.25;;
37851;SDS011;23691;52.486;4.650;2023-06-26T12:08:01;9.57;;;1.40;;
37851;SDS011;23691;52.486;4.650;2023-06-26T12:12:54;12.02;;;1.90;;
37851;SDS011;23691;52.486;4.650;2023-06-26T12:15:24;7.18;;;1.20;;
37851;SDS011;23691;52.486;4.650;2023-06-26T12:17:49;7.67;;;1.27;;
37851;SDS011;23691;52.486;4.650;2023-06-26T12:20:17;10.47;;;1.73;;
37851;SDS011;23691;52.486;4.650;2023-06-26T12:22:47;10.40;;;1.73;;
37851;SDS011;23691;52.486;4.650;2023-06-26T12:25:15;10.00;;;1.48;;
37851;SDS011;23691;52.486;4.650;2023-06-26T12:27:48;10.23;;;1.33;;
37851;SDS011;23691;52.486;4.650;2023-06-26T12:30:15;9.03;;;1.70;;
37851;SDS011;23691;52.486;4.650;2023-06-26T12:32:50;7.93;;;1.20;;
37851;SDS011;23691;52.486;4.650;2023-06-26T12:35:16;8.02;;;1.45;;
37851;SDS011;23691;52.486;4.650;2023-06-26T12:37:41;7.10;;;1.10;;
37851;SDS011;23691;52.486;4.650;2023-06-26T12:40:20;6.55;;;1.52;;
37851;SDS011;23691;52.486;4.650;2023-06-26T12:42:47;11.43;;;1.63;;
37851;SDS011;23691;52.486;4.650;2023-06-26T12:45:13;8.98;;;1.40;;
37851;SDS011;23691;52.486;4.650;2023-06-26T12:47:39;8.05;;;1.40;;
37851;SDS011;23691;52.486;4.650;2023-06-26T12:50:06;9.68;;;1.58;;
37851;SDS011;23691;52.486;4.650;2023-06-26T12:52:33;6.45;;;1.38;;
37851;SDS011;23691;52.486;4.650;2023-06-26T12:54:58;9.60;;;1.50;;
37851;SDS011;23691;52.486;4.650;2023-06-26T12:57:24;7.18;;;1.20;;
37851;SDS011;23691;52.486;4.650;2023-06-26T12:59:50;10.15;;;2.00;;
37851;SDS011;23691;52.486;4.650;2023-06-26T13:02:16;10.35;;;1.23;;
37851;SDS011;23691;52.486;4.650;2023-06-26T13:04:43;8.38;;;1.38;;
37851;SDS011;23691;52.486;4.650;2023-06-26T13:07:09;9.32;;;1.40;;
37851;SDS011;23691;52.486;4.650;2023-06-26T13:09:37;7.05;;;1.48;;
37851;SDS011;23691;52.486;4.650;2023-06-26T13:12:06;7.78;;;1.27;;
37851;SDS011;23691;52.486;4.650;2023-06-26T13:14:34;9.23;;;1.50;;
37851;SDS011;23691;52.486;4.650;2023-06-26T13:17:00;6.20;;;1.15;;
37851;SDS011;23691;52.486;4.650;2023-06-26T13:19:26;9.32;;;1.38;;
37851;SDS011;23691;52.486;4.650;2023-06-26T13:21:52;5.82;;;1.33;;
37851;SDS011;23691;52.486;4.650;2023-06-26T13:24:17;8.55;;;1.30;;
37851;SDS011;23691;52.486;4.650;2023-06-26T13:26:43;6.38;;;1.42;;
37851;SDS011;23691;52.486;4.650;2023-06-26T13:29:09;7.70;;;1.40;;
37851;SDS011;23691;52.486;4.650;2023-06-26T13:31:34;9.53;;;1.63;;
37851;SDS011;23691;52.486;4.650;2023-06-26T13:34:01;10.80;;;1.65;;
37851;SDS011;23691;52.486;4.650;2023-06-26T13:36:35;7.78;;;1.23;;
37851;SDS011;23691;52.486;4.650;2023-06-26T13:39:03;7.95;;;1.63;;
37851;SDS011;23691;52.486;4.650;2023-06-26T13:41:31;4.83;;;1.10;;
37851;SDS011;23691;52.486;4.650;2023-06-26T13:43:58;11.00;;;1.42;;
37851;SDS011;23691;52.486;4.650;2023-06-26T13:46:24;8.30;;;1.30;;
37851;SDS011;23691;52.486;4.650;2023-06-26T13:48:49;6.07;;;1.10;;
37851;SDS011;23691;52.486;4.650;2023-06-26T13:51:15;6.80;;;1.40;;
37851;SDS011;23691;52.486;4.650;2023-06-26T13:53:40;7.38;;;1.75;;
37851;SDS011;23691;52.486;4.650;2023-06-26T13:56:08;7.63;;;1.35;;
37851;SDS011;23691;52.486;4.650;2023-06-26T13:58:35;6.38;;;1.30;;
37851;SDS011;23691;52.486;4.650;2023-06-26T14:01:01;7.78;;;1.42;;
37851;SDS011;23691;52.486;4.650;2023-06-26T14:05:53;8.80;;;1.33;;
37851;SDS011;23691;52.486;4.650;2023-06-26T14:08:22;8.35;;;1.10;;
37851;SDS011;23691;52.486;4.650;2023-06-26T14:10:49;6.77;;;1.47;;
37851;SDS011;23691;52.486;4.650;2023-06-26T14:13:49;8.05;;;1.20;;
37851;SDS011;23691;52.486;4.650;2023-06-26T14:16:15;5.73;;;1.17;;
37851;SDS011;23691;52.486;4.650;2023-06-26T14:18:44;8.27;;;1.30;;
37851;SDS011;23691;52.486;4.650;2023-06-26T14:21:10;8.93;;;1.50;;
37851;SDS011;23691;52.486;4.650;2023-06-26T14:23:35;4.35;;;1.05;;
37851;SDS011;23691;52.486;4.650;2023-06-26T14:26:02;7.22;;;1.30;;
37851;SDS011;23691;52.486;4.650;2023-06-26T14:28:28;6.13;;;1.25;;
37851;SDS011;23691;52.486;4.650;2023-06-26T14:30:56;7.70;;;1.42;;
37851;SDS011;23691;52.486;4.650;2023-06-26T14:33:22;5.70;;;1.35;;
37851;SDS011;23691;52.486;4.650;2023-06-26T14:35:49;4.07;;;1.10;;
37851;SDS011;23691;52.486;4.650;2023-06-26T14:38:15;7.63;;;1.50;;
37851;SDS011;23691;52.486;4.650;2023-06-26T14:40:40;5.87;;;1.27;;
37851;SDS011;23691;52.486;4.650;2023-06-26T14:43:14;7.05;;;1.20;;
37851;SDS011;23691;52.486;4.650;2023-06-26T14:45:41;5.82;;;1.05;;
37851;SDS011;23691;52.486;4.650;2023-06-26T14:48:15;6.27;;;1.33;;
37851;SDS011;23691;52.486;4.650;2023-06-26T14:50:41;8.05;;;1.40;;
37851;SDS011;23691;52.486;4.650;2023-06-26T14:53:06;6.47;;;1.25;;
37851;SDS011;23691;52.486;4.650;2023-06-26T14:55:31;8.05;;;1.23;;
37851;SDS011;23691;52.486;4.650;2023-06-26T14:57:57;6.90;;;1.17;;
37851;SDS011;23691;52.486;4.650;2023-06-26T15:00:23;4.80;;;0.98;;
37851;SDS011;23691;52.486;4.650;2023-06-26T15:02:48;6.63;;;1.37;;
37851;SDS011;23691;52.486;4.650;2023-06-26T15:05:17;6.87;;;1.23;;
37851;SDS011;23691;52.486;4.650;2023-06-26T15:07:43;7.57;;;1.30;;
37851;SDS011;23691;52.486;4.650;2023-06-26T15:10:20;6.18;;;1.25;;
37851;SDS011;23691;52.486;4.650;2023-06-26T15:12:51;7.13;;;1.20;;
37851;SDS011;23691;52.486;4.650;2023-06-26T15:15:18;7.10;;;1.30;;
37851;SDS011;23691;52.486;4.650;2023-06-26T15:17:49;6.20;;;1.20;;
37851;SDS011;23691;52.486;4.650;2023-06-26T15:20:14;4.78;;;1.00;;
37851;SDS011;23691;52.486;4.650;2023-06-26T15:22:40;7.37;;;1.20;;
37851;SDS011;23691;52.486;4.650;2023-06-26T15:25:09;8.73;;;1.20;;
37851;SDS011;23691;52.486;4.650;2023-06-26T15:27:34;5.37;;;1.20;;
37851;SDS011;23691;52.486;4.650;2023-06-26T15:30:00;9.77;;;1.23;;
37851;SDS011;23691;52.486;4.650;2023-06-26T15:32:25;7.68;;;1.40;;
37851;SDS011;23691;52.486;4.650;2023-06-26T15:34:54;6.60;;;1.10;;
37851;SDS011;23691;52.486;4.650;2023-06-26T15:37:19;7.55;;;1.23;;
37851;SDS011;23691;52.486;4.650;2023-06-26T15:39:45;5.15;;;1.05;;
37851;SDS011;23691;52.486;4.650;2023-06-26T15:42:10;5.57;;;1.30;;
37851;SDS011;23691;52.486;4.650;2023-06-26T15:44:36;9.63;;;1.30;;
37851;SDS011;23691;52.486;4.650;2023-06-26T15:47:02;7.25;;;1.20;;
37851;SDS011;23691;52.486;4.650;2023-06-26T15:49:28;7.00;;;1.10;;
37851;SDS011;23691;52.486;4.650;2023-06-26T15:51:54;6.18;;;1.13;;
37851;SDS011;23691;52.486;4.650;2023-06-26T15:54:20;7.43;;;1.20;;
37851;SDS011;23691;52.486;4.650;2023-06-26T15:56:45;6.43;;;1.20;;
37851;SDS011;23691;52.486;4.650;2023-06-26T15:59:12;5.13;;;1.10;;
37851;SDS011;23691;52.486;4.650;2023-06-26T16:01:37;8.20;;;1.63;;
37851;SDS011;23691;52.486;4.650;2023-06-26T16:04:03;4.43;;;1.03;;
37851;SDS011;23691;52.486;4.650;2023-06-26T16:06:29;6.55;;;1.45;;
37851;SDS011;23691;52.486;4.650;2023-06-26T16:08:54;6.57;;;1.23;;
37851;SDS011;23691;52.486;4.650;2023-06-26T16:11:20;6.63;;;1.13;;
37851;SDS011;23691;52.486;4.650;2023-06-26T16:13:45;6.60;;;1.35;;
37851;SDS011;23691;52.486;4.650;2023-06-26T16:16:11;5.03;;;1.17;;